createdAt,value
2018-09-02T00:00:31.284Z,14.67
2018-09-02T00:01:06.528Z,14.65
2018-09-02T00:01:41.654Z,14.67
2018-09-02T00:02:17.000Z,14.72
2018-09-02T00:02:52.215Z,14.71
2018-09-02T00:03:27.586Z,14.57
2018-09-02T00:04:02.918Z,14.65
2018-09-02T00:04:38.564Z,14.64
2018-09-02T00:05:13.705Z,14.64
2018-09-02T00:05:48.734Z,14.57
2018-09-02T00:06:23.770Z,14.60
2018-09-02T00:06:59.180Z,14.61
2018-09-02T00:07:34.538Z,14.62
2018-09-02T00:08:09.985Z,14.62
2018-09-02T00:08:45.211Z,14.60
2018-09-02T00:09:20.703Z,14.46
2018-09-02T00:09:56.174Z,14.57
2018-09-02T00:10:31.721Z,14.54
2018-09-02T00:11:06.873Z,14.62
2018-09-02T00:11:42.304Z,14.64
2018-09-02T00:12:17.460Z,14.60
2018-09-02T00:12:52.693Z,14.61
2018-09-02T00:13:27.941Z,14.65
2018-09-02T00:14:03.466Z,14.56
2018-09-02T00:14:39.060Z,14.64
2018-09-02T00:15:14.597Z,14.60
2018-09-02T00:15:50.058Z,14.65
2018-09-02T00:16:25.204Z,14.53
2018-09-02T00:17:00.675Z,14.60
2018-09-02T00:17:36.068Z,14.60
2018-09-02T00:18:11.324Z,14.68
2018-09-02T00:18:46.446Z,14.53
2018-09-02T00:19:22.106Z,14.57
2018-09-02T00:19:57.335Z,14.64
2018-09-02T00:20:33.138Z,14.57
2018-09-02T00:21:08.502Z,14.61
2018-09-02T00:21:43.628Z,14.54
2018-09-02T00:22:19.091Z,14.53
2018-09-02T00:22:54.525Z,14.52
2018-09-02T00:23:29.987Z,14.49
2018-09-02T00:24:05.220Z,14.54
2018-09-02T00:24:40.854Z,14.54
2018-09-02T00:25:16.180Z,14.53
2018-09-02T00:25:51.630Z,14.49
2018-09-02T00:26:26.839Z,14.47
2018-09-02T00:27:02.358Z,14.53
2018-09-02T00:27:37.877Z,14.50
2018-09-02T00:28:13.234Z,14.50
2018-09-02T00:28:48.378Z,14.28
2018-09-02T00:29:23.927Z,14.46
2018-09-02T00:29:59.074Z,14.46
2018-09-02T00:30:34.969Z,14.49
2018-09-02T00:31:10.228Z,14.52
2018-09-02T00:31:45.755Z,14.47
2018-09-02T00:32:21.110Z,14.42
2018-09-02T00:32:56.587Z,14.54
2018-09-02T00:33:32.087Z,14.47
2018-09-02T00:34:07.658Z,14.53
2018-09-02T00:34:43.377Z,14.47
2018-09-02T00:35:19.196Z,14.52
2018-09-02T00:35:54.409Z,14.47
2018-09-02T00:36:29.990Z,14.46
2018-09-02T00:37:05.331Z,14.46
2018-09-02T00:37:41.070Z,14.50
2018-09-02T00:38:16.755Z,14.44
2018-09-02T00:38:52.083Z,14.47
2018-09-02T00:39:27.725Z,14.39
2018-09-02T00:40:03.036Z,14.46
2018-09-02T00:40:38.273Z,14.44
2018-09-02T00:41:13.793Z,14.47
2018-09-02T00:41:49.152Z,14.39
2018-09-02T00:42:24.677Z,14.44
2018-09-02T00:43:00.146Z,14.50
2018-09-02T00:43:35.508Z,14.38
2018-09-02T00:44:10.755Z,14.35
2018-09-02T00:44:46.129Z,14.37
2018-09-02T00:45:21.573Z,14.43
2018-09-02T00:45:56.925Z,14.32
2018-09-02T00:46:32.233Z,14.37
2018-09-02T00:47:07.391Z,14.31
2018-09-02T00:47:42.543Z,14.42
2018-09-02T00:48:17.804Z,14.32
2018-09-02T00:48:53.646Z,14.42
2018-09-02T00:49:29.066Z,14.35
2018-09-02T00:50:04.521Z,14.32
2018-09-02T00:50:39.929Z,14.37
2018-09-02T00:51:15.595Z,14.39
2018-09-02T00:51:50.981Z,14.44
2018-09-02T00:52:26.408Z,14.34
2018-09-02T00:53:01.578Z,14.39
2018-09-02T00:53:37.381Z,14.32
2018-09-02T00:54:12.946Z,14.29
2018-09-02T00:54:48.266Z,14.42
2018-09-02T00:55:24.000Z,14.44
2018-09-02T00:55:59.510Z,14.32
2018-09-02T00:56:34.750Z,14.29
2018-09-02T00:57:10.145Z,14.34
2018-09-02T00:57:45.396Z,14.34
2018-09-02T00:58:20.941Z,14.31
2018-09-02T00:58:55.841Z,14.39
2018-09-02T00:59:31.281Z,14.28
2018-09-02T01:00:06.570Z,14.31
2018-09-02T01:00:41.821Z,14.43
2018-09-02T01:01:17.248Z,14.32
2018-09-02T01:01:52.395Z,14.35
2018-09-02T01:02:27.620Z,14.24
2018-09-02T01:03:02.962Z,14.34
2018-09-02T01:03:38.473Z,14.28
2018-09-02T01:04:13.696Z,14.39
2018-09-02T01:04:49.145Z,14.32
2018-09-02T01:05:24.360Z,14.29
2018-09-02T01:05:59.606Z,14.27
2018-09-02T01:06:34.809Z,14.27
2018-09-02T01:07:10.031Z,14.27
2018-09-02T01:07:45.719Z,14.29
2018-09-02T01:08:21.415Z,14.28
2018-09-02T01:08:56.915Z,14.29
2018-09-02T01:09:32.345Z,14.16
2018-09-02T01:10:07.683Z,14.28
2018-09-02T01:10:43.514Z,14.24
2018-09-02T01:11:18.947Z,14.24
2018-09-02T01:11:54.282Z,14.25
2018-09-02T01:12:29.730Z,14.27
2018-09-02T01:13:04.881Z,14.27
2018-09-02T01:13:40.301Z,14.27
2018-09-02T01:14:15.618Z,14.29
2018-09-02T01:14:50.653Z,14.20
2018-09-02T01:15:25.870Z,14.28
2018-09-02T01:16:01.315Z,14.14
2018-09-02T01:16:36.756Z,14.16
2018-09-02T01:17:12.187Z,14.16
2018-09-02T01:17:47.717Z,14.16
2018-09-02T01:18:22.961Z,14.17
2018-09-02T01:18:58.414Z,14.19
2018-09-02T01:19:33.651Z,14.19
2018-09-02T01:20:09.095Z,14.14
2018-09-02T01:20:44.213Z,14.16
2018-09-02T01:21:19.773Z,14.13
2018-09-02T01:21:55.282Z,14.14
2018-09-02T01:22:30.413Z,14.16
2018-09-02T01:23:06.093Z,14.13
2018-09-02T01:23:41.285Z,13.70
2018-09-02T01:24:16.540Z,14.12
2018-09-02T01:24:51.765Z,14.14
2018-09-02T01:25:27.193Z,14.07
2018-09-02T01:26:02.187Z,14.10
2018-09-02T01:26:37.946Z,14.14
2018-09-02T01:27:13.375Z,14.12
2018-09-02T01:27:48.697Z,14.16
2018-09-02T01:28:24.273Z,14.10
2018-09-02T01:29:00.009Z,14.10
2018-09-02T01:29:35.247Z,14.16
2018-09-02T01:30:10.658Z,14.10
2018-09-02T01:30:45.785Z,14.14
2018-09-02T01:31:21.202Z,14.10
2018-09-02T01:31:56.619Z,14.07
2018-09-02T01:32:31.711Z,14.10
2018-09-02T01:33:07.022Z,13.56
2018-09-02T01:33:42.121Z,13.55
2018-09-02T01:34:17.235Z,13.95
2018-09-02T01:34:52.580Z,14.09
2018-09-02T01:35:28.126Z,14.01
2018-09-02T01:36:03.651Z,14.04
2018-09-02T01:36:39.070Z,14.04
2018-09-02T01:37:14.504Z,14.10
2018-09-02T01:37:49.723Z,14.02
2018-09-02T01:38:25.170Z,14.10
2018-09-02T01:39:00.509Z,14.12
2018-09-02T01:39:35.534Z,14.19
2018-09-02T01:40:10.961Z,14.13
2018-09-02T01:40:46.692Z,14.04
2018-09-02T01:41:21.971Z,14.07
2018-09-02T01:41:57.381Z,14.06
2018-09-02T01:42:32.600Z,14.06
2018-09-02T01:43:07.860Z,14.02
2018-09-02T01:43:43.110Z,13.99
2018-09-02T01:44:18.435Z,14.06
2018-09-02T01:44:53.871Z,14.09
2018-09-02T01:45:29.065Z,14.12
2018-09-02T01:46:04.501Z,14.14
2018-09-02T01:46:39.829Z,14.06
2018-09-02T01:47:15.329Z,14.04
2018-09-02T01:47:50.755Z,14.06
2018-09-02T01:48:26.102Z,14.10
2018-09-02T01:49:01.222Z,14.07
2018-09-02T01:49:36.528Z,14.01
2018-09-02T01:50:11.942Z,14.09
2018-09-02T01:50:47.450Z,14.02
2018-09-02T01:51:22.904Z,14.13
2018-09-02T01:51:58.148Z,14.04
2018-09-02T01:52:33.667Z,14.01
2018-09-02T01:53:09.232Z,14.02
2018-09-02T01:53:44.524Z,14.13
2018-09-02T01:54:19.843Z,14.12
2018-09-02T01:54:55.261Z,14.09
2018-09-02T01:55:31.013Z,14.01
2018-09-02T01:56:06.313Z,14.02
2018-09-02T01:56:41.753Z,14.02
2018-09-02T01:57:17.378Z,13.95
2018-09-02T01:57:52.782Z,14.01
2018-09-02T01:58:28.444Z,13.99
2018-09-02T01:59:03.862Z,13.98
2018-09-02T01:59:39.575Z,13.94
2018-09-02T02:00:14.979Z,13.89
2018-09-02T02:00:50.315Z,13.91
2018-09-02T02:01:25.524Z,13.83
2018-09-02T02:02:00.881Z,13.81
2018-09-02T02:02:36.475Z,13.87
2018-09-02T02:03:11.718Z,13.76
2018-09-02T02:03:47.359Z,13.80
2018-09-02T02:04:22.777Z,13.80
2018-09-02T02:04:58.227Z,13.76
2018-09-02T02:05:33.417Z,13.79
2018-09-02T02:06:08.952Z,13.74
2018-09-02T02:06:44.386Z,13.79
2018-09-02T02:07:19.708Z,13.77
2018-09-02T02:07:55.320Z,13.81
2018-09-02T02:08:30.498Z,13.76
2018-09-02T02:09:05.893Z,13.76
2018-09-02T02:09:41.154Z,13.79
2018-09-02T02:10:16.176Z,13.79
2018-09-02T02:10:51.632Z,13.77
2018-09-02T02:11:26.999Z,13.77
2018-09-02T02:12:02.294Z,13.69
2018-09-02T02:12:37.316Z,13.74
2018-09-02T02:13:12.752Z,13.74
2018-09-02T02:13:48.374Z,13.70
2018-09-02T02:14:23.780Z,13.74
2018-09-02T02:14:59.028Z,13.73
2018-09-02T02:15:34.445Z,13.73
2018-09-02T02:16:09.700Z,13.63
2018-09-02T02:16:44.899Z,13.71
2018-09-02T02:17:20.123Z,13.70
2018-09-02T02:17:55.433Z,13.69
2018-09-02T02:18:30.493Z,13.71
2018-09-02T02:19:05.709Z,13.70
2018-09-02T02:19:41.215Z,13.70
2018-09-02T02:20:16.305Z,13.71
2018-09-02T02:20:51.844Z,13.65
2018-09-02T02:21:27.243Z,13.59
2018-09-02T02:22:02.397Z,13.56
2018-09-02T02:22:37.648Z,13.58
2018-09-02T02:23:13.258Z,13.61
2018-09-02T02:23:48.587Z,13.70
2018-09-02T02:24:23.893Z,13.69
2018-09-02T02:24:59.327Z,13.59
2018-09-02T02:25:34.756Z,13.61
2018-09-02T02:26:10.209Z,13.58
2018-09-02T02:26:45.400Z,13.55
2018-09-02T02:27:20.951Z,13.55
2018-09-02T02:27:56.173Z,13.55
2018-09-02T02:28:31.339Z,13.58
2018-09-02T02:29:06.425Z,13.55
2018-09-02T02:29:41.791Z,13.58
2018-09-02T02:30:17.407Z,13.59
2018-09-02T02:30:52.732Z,13.51
2018-09-02T02:31:28.048Z,13.56
2018-09-02T02:32:03.264Z,13.46
2018-09-02T02:32:38.677Z,13.54
2018-09-02T02:33:14.062Z,13.55
2018-09-02T02:33:49.664Z,13.52
2018-09-02T02:34:25.127Z,13.55
2018-09-02T02:35:00.238Z,13.58
2018-09-02T02:35:35.474Z,13.49
2018-09-02T02:36:10.935Z,13.49
2018-09-02T02:36:46.078Z,13.51
2018-09-02T02:37:21.199Z,13.55
2018-09-02T02:37:56.539Z,13.51
2018-09-02T02:38:31.886Z,13.51
2018-09-02T02:39:07.091Z,13.56
2018-09-02T02:39:42.322Z,13.51
2018-09-02T02:40:17.674Z,13.52
2018-09-02T02:40:53.296Z,13.54
2018-09-02T02:41:28.934Z,13.54
2018-09-02T02:42:04.333Z,13.49
2018-09-02T02:42:39.567Z,13.47
2018-09-02T02:43:15.095Z,13.49
2018-09-02T02:43:50.720Z,13.59
2018-09-02T02:44:26.198Z,13.56
2018-09-02T02:45:01.592Z,13.55
2018-09-02T02:45:36.731Z,13.54
2018-09-02T02:46:12.046Z,13.56
2018-09-02T02:46:47.471Z,13.51
2018-09-02T02:47:23.187Z,13.52
2018-09-02T02:47:58.550Z,13.52
2018-09-02T02:48:33.756Z,13.46
2018-09-02T02:49:09.100Z,13.47
2018-09-02T02:49:44.758Z,13.41
2018-09-02T02:50:20.249Z,13.43
2018-09-02T02:50:55.683Z,13.47
2018-09-02T02:51:30.874Z,13.44
2018-09-02T02:52:06.302Z,13.47
2018-09-02T02:52:41.617Z,13.47
2018-09-02T02:53:17.068Z,13.52
2018-09-02T02:53:52.304Z,13.38
2018-09-02T02:54:27.642Z,13.43
2018-09-02T02:55:02.969Z,13.46
2018-09-02T02:55:38.264Z,13.44
2018-09-02T02:56:13.816Z,13.41
2018-09-02T02:56:49.049Z,13.38
2018-09-02T02:57:24.878Z,13.41
2018-09-02T02:58:00.307Z,13.40
2018-09-02T02:58:35.436Z,13.51
2018-09-02T02:59:10.966Z,13.37
2018-09-02T02:59:46.419Z,13.33
2018-09-02T03:00:21.909Z,13.41
2018-09-02T03:00:56.917Z,13.44
2018-09-02T03:01:32.339Z,13.43
2018-09-02T03:02:07.478Z,13.44
2018-09-02T03:02:42.713Z,13.44
2018-09-02T03:03:18.182Z,13.43
2018-09-02T03:03:53.602Z,13.40
2018-09-02T03:04:29.336Z,13.46
2018-09-02T03:05:04.685Z,13.41
2018-09-02T03:05:40.196Z,13.46
2018-09-02T03:06:15.439Z,13.33
2018-09-02T03:06:50.655Z,13.41
2018-09-02T03:07:25.797Z,13.41
2018-09-02T03:08:01.175Z,13.36
2018-09-02T03:08:36.394Z,13.43
2018-09-02T03:09:11.831Z,13.49
2018-09-02T03:09:47.329Z,13.40
2018-09-02T03:10:22.754Z,13.51
2018-09-02T03:10:58.071Z,13.44
2018-09-02T03:11:33.799Z,13.47
2018-09-02T03:12:09.210Z,13.51
2018-09-02T03:12:45.425Z,13.40
2018-09-02T03:13:20.800Z,13.54
2018-09-02T03:13:56.061Z,13.49
2018-09-02T03:14:31.295Z,13.52
2018-09-02T03:15:06.591Z,13.51
2018-09-02T03:15:42.136Z,13.51
2018-09-02T03:16:17.529Z,13.51
2018-09-02T03:16:52.590Z,13.49
2018-09-02T03:17:27.804Z,13.43
2018-09-02T03:18:03.185Z,13.47
2018-09-02T03:18:38.722Z,13.43
2018-09-02T03:19:14.331Z,13.52
2018-09-02T03:19:49.546Z,13.51
2018-09-02T03:20:24.878Z,13.43
2018-09-02T03:21:00.219Z,13.52
2018-09-02T03:21:35.660Z,13.44
2018-09-02T03:22:11.000Z,13.54
2018-09-02T03:22:46.318Z,13.49
2018-09-02T03:23:21.771Z,13.49
2018-09-02T03:23:57.294Z,13.49
2018-09-02T03:24:32.614Z,13.49
2018-09-02T03:25:07.878Z,13.51
2018-09-02T03:25:43.490Z,13.54
2018-09-02T03:26:18.754Z,13.54
2018-09-02T03:26:54.262Z,13.46
2018-09-02T03:27:29.641Z,13.52
2018-09-02T03:28:05.568Z,13.51
2018-09-02T03:28:40.909Z,13.54
2018-09-02T03:29:16.326Z,13.44
2018-09-02T03:29:51.674Z,13.59
2018-09-02T03:30:27.088Z,13.59
2018-09-02T03:31:02.613Z,13.52
2018-09-02T03:31:37.826Z,13.46
2018-09-02T03:32:13.328Z,13.54
2018-09-02T03:32:48.696Z,13.55
2018-09-02T03:33:24.116Z,13.52
2018-09-02T03:33:59.435Z,13.54
2018-09-02T03:34:34.658Z,13.47
2018-09-02T03:35:09.886Z,13.51
2018-09-02T03:35:45.104Z,13.56
2018-09-02T03:36:20.525Z,13.51
2018-09-02T03:36:55.936Z,13.59
2018-09-02T03:37:31.232Z,13.61
2018-09-02T03:38:06.991Z,13.61
2018-09-02T03:38:42.074Z,13.58
2018-09-02T03:39:17.413Z,13.61
2018-09-02T03:39:52.728Z,13.70
2018-09-02T03:40:28.167Z,13.67
2018-09-02T03:41:03.394Z,13.69
2018-09-02T03:41:38.420Z,13.63
2018-09-02T03:42:13.614Z,13.69
2018-09-02T03:42:49.364Z,13.69
2018-09-02T03:43:25.131Z,13.69
2018-09-02T03:44:00.448Z,13.65
2018-09-02T03:44:35.682Z,13.74
2018-09-02T03:45:11.378Z,13.73
2018-09-02T03:45:46.606Z,13.70
2018-09-02T03:46:21.791Z,13.79
2018-09-02T03:46:57.115Z,13.84
2018-09-02T03:47:32.336Z,13.83
2018-09-02T03:48:07.498Z,13.94
2018-09-02T03:48:42.947Z,13.94
2018-09-02T03:49:18.372Z,13.91
2018-09-02T03:49:53.720Z,13.88
2018-09-02T03:50:29.137Z,13.92
2018-09-02T03:51:04.484Z,13.92
2018-09-02T03:51:39.923Z,13.92
2018-09-02T03:52:15.222Z,13.94
2018-09-02T03:52:50.382Z,13.94
2018-09-02T03:53:25.944Z,13.98
2018-09-02T03:54:01.192Z,13.96
2018-09-02T03:54:36.420Z,13.95
2018-09-02T03:55:11.767Z,14.06
2018-09-02T03:55:47.472Z,13.98
2018-09-02T03:56:22.902Z,13.99
2018-09-02T03:56:58.302Z,13.99
2018-09-02T03:57:33.929Z,14.12
2018-09-02T03:58:09.310Z,14.07
2018-09-02T03:58:44.607Z,14.10
2018-09-02T03:59:19.850Z,14.07
2018-09-02T03:59:54.942Z,14.12
2018-09-02T04:00:30.305Z,14.10
2018-09-02T04:01:05.590Z,14.06
2018-09-02T04:01:40.941Z,14.14
2018-09-02T04:02:16.083Z,14.12
2018-09-02T04:02:51.504Z,14.12
2018-09-02T04:03:26.932Z,14.13
2018-09-02T04:04:02.089Z,14.13
2018-09-02T04:04:37.447Z,14.19
2018-09-02T04:05:13.080Z,14.20
2018-09-02T04:05:48.509Z,14.27
2018-09-02T04:06:23.822Z,14.31
2018-09-02T04:06:59.568Z,14.25
2018-09-02T04:07:34.862Z,14.16
2018-09-02T04:08:10.314Z,14.14
2018-09-02T04:08:45.370Z,14.16
2018-09-02T04:09:20.502Z,14.20
2018-09-02T04:09:55.718Z,14.19
2018-09-02T04:10:31.068Z,14.14
2018-09-02T04:11:06.512Z,14.28
2018-09-02T04:11:41.689Z,14.28
2018-09-02T04:12:17.126Z,14.28
2018-09-02T04:12:52.650Z,14.25
2018-09-02T04:13:28.022Z,14.31
2018-09-02T04:14:03.224Z,14.25
2018-09-02T04:14:38.653Z,14.32
2018-09-02T04:15:13.944Z,14.25
2018-09-02T04:15:49.512Z,14.28
2018-09-02T04:16:24.922Z,14.28
2018-09-02T04:17:00.661Z,14.27
2018-09-02T04:17:36.526Z,14.27
2018-09-02T04:18:12.195Z,14.28
2018-09-02T04:18:47.724Z,14.28
2018-09-02T04:19:23.027Z,14.24
2018-09-02T04:19:58.281Z,14.17
2018-09-02T04:20:33.305Z,14.28
2018-09-02T04:21:08.723Z,14.29
2018-09-02T04:21:44.223Z,14.29
2018-09-02T04:22:19.768Z,14.19
2018-09-02T04:22:55.205Z,14.17
2018-09-02T04:23:30.775Z,14.12
2018-09-02T04:24:06.118Z,14.16
2018-09-02T04:24:41.465Z,14.16
2018-09-02T04:25:16.716Z,14.17
2018-09-02T04:25:52.044Z,14.07
2018-09-02T04:26:27.163Z,14.07
2018-09-02T04:27:02.396Z,14.06
2018-09-02T04:27:37.954Z,14.02
2018-09-02T04:28:13.209Z,13.99
2018-09-02T04:28:48.638Z,14.04
2018-09-02T04:29:23.858Z,14.01
2018-09-02T04:29:59.290Z,14.01
2018-09-02T04:30:34.701Z,13.96
2018-09-02T04:31:10.068Z,13.94
2018-09-02T04:31:45.482Z,13.95
2018-09-02T04:32:20.786Z,13.92
2018-09-02T04:32:55.901Z,13.95
2018-09-02T04:33:31.481Z,13.91
2018-09-02T04:34:06.825Z,13.88
2018-09-02T04:34:42.432Z,13.83
2018-09-02T04:35:17.854Z,13.84
2018-09-02T04:35:53.616Z,13.88
2018-09-02T04:36:28.947Z,13.81
2018-09-02T04:37:04.387Z,13.87
2018-09-02T04:37:39.991Z,13.79
2018-09-02T04:38:15.654Z,13.81
2018-09-02T04:38:51.100Z,13.73
2018-09-02T04:39:26.508Z,13.74
2018-09-02T04:40:02.034Z,13.83
2018-09-02T04:40:37.487Z,13.77
2018-09-02T04:41:13.079Z,13.81
2018-09-02T04:41:48.312Z,13.80
2018-09-02T04:42:23.694Z,13.76
2018-09-02T04:42:59.188Z,13.70
2018-09-02T04:43:34.545Z,13.77
2018-09-02T04:44:09.776Z,13.76
2018-09-02T04:44:45.524Z,13.65
2018-09-02T04:45:20.575Z,13.62
2018-09-02T04:45:55.901Z,13.69
2018-09-02T04:46:31.105Z,13.77
2018-09-02T04:47:06.662Z,13.71
2018-09-02T04:47:41.945Z,13.74
2018-09-02T04:48:17.088Z,13.74
2018-09-02T04:48:52.310Z,13.67
2018-09-02T04:49:27.642Z,13.69
2018-09-02T04:50:03.167Z,13.67
2018-09-02T04:50:38.516Z,13.59
2018-09-02T04:51:13.663Z,13.59
2018-09-02T04:51:49.080Z,13.69
2018-09-02T04:52:24.312Z,13.65
2018-09-02T04:52:59.568Z,13.62
2018-09-02T04:53:34.949Z,13.65
2018-09-02T04:54:10.322Z,13.63
2018-09-02T04:54:45.642Z,13.61
2018-09-02T04:55:20.847Z,13.56
2018-09-02T04:55:56.609Z,13.63
2018-09-02T04:56:31.896Z,13.70
2018-09-02T04:57:07.339Z,13.65
2018-09-02T04:57:42.740Z,13.74
2018-09-02T04:58:17.998Z,13.69
2018-09-02T04:58:53.435Z,13.69
2018-09-02T04:59:28.944Z,13.67
2018-09-02T05:00:04.367Z,13.67
2018-09-02T05:00:39.599Z,13.69
2018-09-02T05:01:14.897Z,13.70
2018-09-02T05:01:50.043Z,13.65
2018-09-02T05:02:25.372Z,13.74
2018-09-02T05:03:00.807Z,13.76
2018-09-02T05:03:36.339Z,13.67
2018-09-02T05:04:11.773Z,13.70
2018-09-02T05:04:47.016Z,13.76
2018-09-02T05:05:22.442Z,13.71
2018-09-02T05:05:58.179Z,13.73
2018-09-02T05:06:33.512Z,13.69
2018-09-02T05:07:08.956Z,13.71
2018-09-02T05:07:44.371Z,13.65
2018-09-02T05:08:19.590Z,13.63
2018-09-02T05:08:55.059Z,13.67
2018-09-02T05:09:30.183Z,13.65
2018-09-02T05:10:05.350Z,13.67
2018-09-02T05:10:40.765Z,13.65
2018-09-02T05:11:16.198Z,13.63
2018-09-02T05:11:51.200Z,13.62
2018-09-02T05:12:26.481Z,13.61
2018-09-02T05:13:01.639Z,13.59
2018-09-02T05:13:37.179Z,13.63
2018-09-02T05:14:12.611Z,13.62
2018-09-02T05:14:47.735Z,13.65
2018-09-02T05:15:23.165Z,13.61
2018-09-02T05:15:58.825Z,13.55
2018-09-02T05:16:34.386Z,13.65
2018-09-02T05:17:09.544Z,13.55
2018-09-02T05:17:45.050Z,13.51
2018-09-02T05:18:20.400Z,13.52
2018-09-02T05:18:55.810Z,13.51
2018-09-02T05:19:31.108Z,13.58
2018-09-02T05:20:06.640Z,13.58
2018-09-02T05:20:41.930Z,13.67
2018-09-02T05:21:17.266Z,13.67
2018-09-02T05:21:53.208Z,13.56
2018-09-02T05:22:28.644Z,13.61
2018-09-02T05:23:04.204Z,13.69
2018-09-02T05:23:39.430Z,13.71
2018-09-02T05:24:14.662Z,13.40
2018-09-02T05:24:49.879Z,13.69
2018-09-02T05:25:25.289Z,13.80
2018-09-02T05:26:00.686Z,13.83
2018-09-02T05:26:36.117Z,13.79
2018-09-02T05:27:11.216Z,13.80
2018-09-02T05:27:46.659Z,13.89
2018-09-02T05:28:22.018Z,13.89
2018-09-02T05:28:57.347Z,13.89
2018-09-02T05:29:32.597Z,13.81
2018-09-02T05:30:07.907Z,13.89
2018-09-02T05:30:43.257Z,13.79
2018-09-02T05:31:18.449Z,13.89
2018-09-02T05:31:53.890Z,13.80
2018-09-02T05:32:29.295Z,13.96
2018-09-02T05:33:04.971Z,13.99
2018-09-02T05:33:40.962Z,13.99
2018-09-02T05:34:16.305Z,13.95
2018-09-02T05:34:51.397Z,13.95
2018-09-02T05:35:26.933Z,14.06
2018-09-02T05:36:02.287Z,14.01
2018-09-02T05:36:37.575Z,14.10
2018-09-02T05:37:13.263Z,14.16
2018-09-02T05:37:48.669Z,14.14
2018-09-02T05:38:24.135Z,14.17
2018-09-02T05:38:59.634Z,14.27
2018-09-02T05:39:35.061Z,14.27
2018-09-02T05:40:10.352Z,14.28
2018-09-02T05:40:45.609Z,14.29
2018-09-02T05:41:20.912Z,14.29
2018-09-02T05:41:56.432Z,14.31
2018-09-02T05:42:31.742Z,14.38
2018-09-02T05:43:07.225Z,14.42
2018-09-02T05:43:42.386Z,14.29
2018-09-02T05:44:17.673Z,14.37
2018-09-02T05:44:53.029Z,14.38
2018-09-02T05:45:28.333Z,14.37
2018-09-02T05:46:03.693Z,14.31
2018-09-02T05:46:39.397Z,14.49
2018-09-02T05:47:14.612Z,14.39
2018-09-02T05:47:50.450Z,14.50
2018-09-02T05:48:25.785Z,14.52
2018-09-02T05:49:01.233Z,14.56
2018-09-02T05:49:36.943Z,14.54
2018-09-02T05:50:12.401Z,14.53
2018-09-02T05:50:47.795Z,14.57
2018-09-02T05:51:23.250Z,14.56
2018-09-02T05:51:58.788Z,14.52
2018-09-02T05:52:34.016Z,14.61
2018-09-02T05:53:09.325Z,14.57
2018-09-02T05:53:44.577Z,14.69
2018-09-02T05:54:20.002Z,14.80
2018-09-02T05:54:55.331Z,14.81
2018-09-02T05:55:30.652Z,14.74
2018-09-02T05:56:06.182Z,14.72
2018-09-02T05:56:41.430Z,14.86
2018-09-02T05:57:16.819Z,14.86
2018-09-02T05:57:52.388Z,14.84
2018-09-02T05:58:27.743Z,14.93
2018-09-02T05:59:02.904Z,15.01
2018-09-02T05:59:38.058Z,15.02
2018-09-02T06:00:13.579Z,15.08
2018-09-02T06:00:48.809Z,14.98
2018-09-02T06:01:24.338Z,15.08
2018-09-02T06:01:59.866Z,15.08
2018-09-02T06:02:35.512Z,15.19
2018-09-02T06:03:10.978Z,15.24
2018-09-02T06:03:46.421Z,15.23
2018-09-02T06:04:21.966Z,15.30
2018-09-02T06:04:57.630Z,15.27
2018-09-02T06:05:33.046Z,15.31
2018-09-02T06:06:08.478Z,15.41
2018-09-02T06:06:43.779Z,15.35
2018-09-02T06:07:19.008Z,15.31
2018-09-02T06:07:54.159Z,15.42
2018-09-02T06:08:29.425Z,15.39
2018-09-02T06:09:04.552Z,15.54
2018-09-02T06:09:39.698Z,15.60
2018-09-02T06:10:14.991Z,15.66
2018-09-02T06:10:50.420Z,15.68
2018-09-02T06:11:25.639Z,15.70
2018-09-02T06:12:01.083Z,15.76
2018-09-02T06:12:36.564Z,15.89
2018-09-02T06:13:11.707Z,15.84
2018-09-02T06:13:47.451Z,15.94
2018-09-02T06:14:22.671Z,15.92
2018-09-02T06:14:58.009Z,15.97
2018-09-02T06:15:33.541Z,16.03
2018-09-02T06:16:08.768Z,16.15
2018-09-02T06:16:44.162Z,16.16
2018-09-02T06:17:19.433Z,16.14
2018-09-02T06:17:54.812Z,16.27
2018-09-02T06:18:30.185Z,16.48
2018-09-02T06:19:05.705Z,16.45
2018-09-02T06:19:41.460Z,16.45
2018-09-02T06:20:16.600Z,16.58
2018-09-02T06:20:52.059Z,16.71
2018-09-02T06:21:27.376Z,16.80
2018-09-02T06:22:03.011Z,16.86
2018-09-02T06:22:38.221Z,16.90
2018-09-02T06:23:13.667Z,17.03
2018-09-02T06:23:49.157Z,17.03
2018-09-02T06:24:24.371Z,17.07
2018-09-02T06:25:00.048Z,17.17
2018-09-02T06:25:35.375Z,17.29
2018-09-02T06:26:10.604Z,17.36
2018-09-02T06:26:46.023Z,17.44
2018-09-02T06:27:21.290Z,17.50
2018-09-02T06:27:56.571Z,17.64
2018-09-02T06:28:31.921Z,17.70
2018-09-02T06:29:07.346Z,17.66
2018-09-02T06:29:42.699Z,17.84
2018-09-02T06:30:17.913Z,17.91
2018-09-02T06:30:53.171Z,17.99
2018-09-02T06:31:28.492Z,18.12
2018-09-02T06:32:04.253Z,18.13
2018-09-02T06:32:39.900Z,18.25
2018-09-02T06:33:15.328Z,18.40
2018-09-02T06:33:51.087Z,18.55
2018-09-02T06:34:26.715Z,18.55
2018-09-02T06:35:02.256Z,18.67
2018-09-02T06:35:37.753Z,18.74
2018-09-02T06:36:13.321Z,18.83
2018-09-02T06:36:48.786Z,19.01
2018-09-02T06:37:24.209Z,19.05
2018-09-02T06:37:59.419Z,19.14
2018-09-02T06:38:35.042Z,19.28
2018-09-02T06:39:10.198Z,19.51
2018-09-02T06:39:45.526Z,19.65
2018-09-02T06:40:21.089Z,19.86
2018-09-02T06:40:56.442Z,19.94
2018-09-02T06:41:32.099Z,20.16
2018-09-02T06:42:07.546Z,20.23
2018-09-02T06:42:42.992Z,20.38
2018-09-02T06:43:18.677Z,20.53
2018-09-02T06:43:54.090Z,20.59
2018-09-02T06:44:29.483Z,20.80
2018-09-02T06:45:05.204Z,20.80
2018-09-02T06:45:41.057Z,20.93
2018-09-02T06:46:16.689Z,21.08
2018-09-02T06:46:52.267Z,21.29
2018-09-02T06:47:27.694Z,21.51
2018-09-02T06:48:03.280Z,21.66
2018-09-02T06:48:39.739Z,21.75
2018-09-02T06:49:14.956Z,21.98
2018-09-02T06:49:50.295Z,22.14
2018-09-02T06:50:25.654Z,22.20
2018-09-02T06:51:01.007Z,22.32
2018-09-02T06:51:36.323Z,22.54
2018-09-02T06:52:11.750Z,22.65
2018-09-02T06:52:47.250Z,22.77
2018-09-02T06:53:22.693Z,23.07
2018-09-02T06:53:58.581Z,23.14
2018-09-02T06:54:34.222Z,23.22
2018-09-02T06:55:09.839Z,23.34
2018-09-02T06:55:45.404Z,23.42
2018-09-02T06:56:20.786Z,23.43
2018-09-02T06:56:56.104Z,23.55
2018-09-02T06:57:31.450Z,23.67
2018-09-02T06:58:07.087Z,23.82
2018-09-02T06:58:42.472Z,23.76
2018-09-02T06:59:17.642Z,23.89
2018-09-02T06:59:53.367Z,24.01
2018-09-02T07:00:28.985Z,24.08
2018-09-02T07:01:04.625Z,24.19
2018-09-02T07:01:40.066Z,24.31
2018-09-02T07:02:15.755Z,24.50
2018-09-02T07:02:51.087Z,24.50
2018-09-02T07:03:26.332Z,24.61
2018-09-02T07:04:01.796Z,24.77
2018-09-02T07:04:37.114Z,24.83
2018-09-02T07:05:12.445Z,24.95
2018-09-02T07:05:47.961Z,24.98
2018-09-02T07:06:23.714Z,25.25
2018-09-02T07:06:59.042Z,25.25
2018-09-02T07:07:34.695Z,25.28
2018-09-02T07:08:09.956Z,25.35
2018-09-02T07:08:45.621Z,25.34
2018-09-02T07:09:21.385Z,25.49
2018-09-02T07:09:56.833Z,25.47
2018-09-02T07:10:32.193Z,25.59
2018-09-02T07:11:07.534Z,25.50
2018-09-02T07:11:42.881Z,25.71
2018-09-02T07:12:18.646Z,25.74
2018-09-02T07:12:53.996Z,25.84
2018-09-02T07:13:29.281Z,26.11
2018-09-02T07:14:04.937Z,26.29
2018-09-02T07:14:40.392Z,26.40
2018-09-02T07:15:15.609Z,26.55
2018-09-02T07:15:51.272Z,26.58
2018-09-02T07:16:26.805Z,26.72
2018-09-02T07:17:02.263Z,26.43
2018-09-02T07:17:37.483Z,26.29
2018-09-02T07:18:12.760Z,26.43
2018-09-02T07:18:48.502Z,26.52
2018-09-02T07:19:23.651Z,26.40
2018-09-02T07:19:59.005Z,26.32
2018-09-02T07:20:34.295Z,26.42
2018-09-02T07:21:09.641Z,26.61
2018-09-02T07:21:44.865Z,26.74
2018-09-02T07:22:20.089Z,26.91
2018-09-02T07:22:55.411Z,26.91
2018-09-02T07:23:31.063Z,26.81
2018-09-02T07:24:06.389Z,26.68
2018-09-02T07:24:41.739Z,26.73
2018-09-02T07:25:17.170Z,26.76
2018-09-02T07:25:52.885Z,26.55
2018-09-02T07:26:28.019Z,26.55
2018-09-02T07:27:03.456Z,26.86
2018-09-02T07:27:38.882Z,27.01
2018-09-02T07:28:14.148Z,27.05
2018-09-02T07:28:49.575Z,27.05
2018-09-02T07:29:24.908Z,26.92
2018-09-02T07:30:00.085Z,27.01
2018-09-02T07:30:36.115Z,27.04
2018-09-02T07:31:11.481Z,27.09
2018-09-02T07:31:47.136Z,27.29
2018-09-02T07:32:22.350Z,27.58
2018-09-02T07:32:57.708Z,27.54
2018-09-02T07:33:33.034Z,27.62
2018-09-02T07:34:08.495Z,27.38
2018-09-02T07:34:43.940Z,27.21
2018-09-02T07:35:19.265Z,27.11
2018-09-02T07:35:54.656Z,27.31